Time;durP1;ratioP1;P1;durP2;ratioP2;P2;SDS_P1;SDS_P2;PMS_P1;PMS_P2;Temp;Humidity;BMP_temperature;BMP_pressure;BME280_temperature;BME280_humidity;BME280_pressure;Samples;Min_cycle;Max_cycle;Signal;HPM_P1;HPM_P2
2022/11/01 00:01:55;;;;;;;0.70;0.70;;;12.00;98.80;11.20;95943.00;;;;5093749;28;20194;-52
2022/11/01 00:04:24;;;;;;;1.93;1.80;;;12.00;98.90;11.00;95947.00;;;;5093720;28;20218;-52
2022/11/01 00:06:51;;;;;;;1.73;1.63;;;11.80;98.50;11.10;95950.00;;;;5093553;28;20228;-52
2022/11/01 00:09:17;;;;;;;0.80;0.80;;;11.80;98.90;11.00;95938.00;;;;5093655;28;20282;-52
2022/11/01 00:11:45;;;;;;;1.70;1.60;;;11.80;99.00;11.00;95941.00;;;;5075741;28;20261;-56
2022/11/01 00:14:16;;;;;;;2.07;1.87;;;11.80;99.00;10.90;95932.00;;;;5093550;28;20692;-59
2022/11/01 00:16:43;;;;;;;1.03;1.03;;;11.70;98.60;11.00;95942.00;;;;5092538;28;20268;-54
2022/11/01 00:19:10;;;;;;;2.87;2.00;;;11.70;99.30;11.00;95944.00;;;;5093754;28;20198;-54
2022/11/01 00:21:37;;;;;;;1.93;1.43;;;11.70;99.50;11.00;95943.00;;;;5093647;28;20217;-53
2022/11/01 00:24:04;;;;;;;1.03;1.03;;;11.70;99.50;11.00;95948.00;;;;5093577;28;20269;-52
2022/11/01 00:26:31;;;;;;;1.67;1.57;;;11.80;99.50;11.10;95949.00;;;;5092594;28;20665;-52
2022/11/01 00:28:58;;;;;;;1.20;1.20;;;11.80;99.50;11.10;95942.00;;;;5093306;28;20240;-52
2022/11/01 00:31:25;;;;;;;1.40;1.40;;;11.80;99.30;11.10;95932.00;;;;5092478;28;20534;-52
2022/11/01 00:33:52;;;;;;;7.30;1.23;;;11.80;99.10;11.20;95947.00;;;;5093269;28;20226;-52
2022/11/01 00:36:20;;;;;;;1.13;1.13;;;11.80;99.10;11.20;95939.00;;;;5095795;28;20202;-52
2022/11/01 00:38:49;;;;;;;2.27;1.30;;;11.80;99.00;11.20;95940.00;;;;5095891;28;20618;-52
2022/11/01 00:41:20;;;;;;;1.77;1.67;;;11.80;98.70;11.10;95946.00;;;;5096858;28;20186;-52
2022/11/01 00:43:47;;;;;;;2.60;2.40;;;11.90;98.50;11.10;95950.00;;;;5096894;28;20206;-52
2022/11/01 00:46:15;;;;;;;1.43;1.33;;;11.80;98.40;11.00;95952.00;;;;5096640;28;20292;-52
2022/11/01 00:48:43;;;;;;;0.90;0.90;;;11.80;98.10;11.00;95953.00;;;;5096710;28;20194;-54
2022/11/01 00:51:10;;;;;;;2.83;2.00;;;11.70;98.30;11.00;95944.00;;;;5096696;28;20290;-54
2022/11/01 00:53:37;;;;;;;0.80;0.80;;;11.70;98.50;11.00;95945.00;;;;5096684;28;20537;-52
2022/11/01 00:56:06;;;;;;;0.87;0.87;;;11.70;98.30;11.00;95936.00;;;;5078832;28;20260;-53
2022/11/01 00:58:33;;;;;;;3.80;1.37;;;11.70;98.60;11.00;95945.00;;;;5096751;28;20206;-57
2022/11/01 01:01:00;;;;;;;2.57;2.33;;;11.70;98.50;11.00;95946.00;;;;5096649;28;20663;-52
2022/11/01 01:03:29;;;;;;;1.00;1.00;;;11.70;98.40;11.00;95950.00;;;;5078872;28;20253;-52
2022/11/01 01:05:56;;;;;;;1.00;1.00;;;11.70;98.60;11.00;95950.00;;;;5096302;28;20562;-54
2022/11/01 01:08:23;;;;;;;1.47;1.43;;;11.70;98.80;11.10;95940.00;;;;5096315;28;20227;-56
2022/11/01 01:10:50;;;;;;;1.77;1.67;;;11.80;98.60;11.10;95926.00;;;;5096448;28;20191;-55
2022/11/01 01:13:17;;;;;;;5.50;1.90;;;11.80;98.50;11.20;95947.00;;;;5096353;28;20223;-52
2022/11/01 01:15:44;;;;;;;1.60;1.50;;;11.90;98.40;11.10;95944.00;;;;5096229;28;20581;-52
2022/11/01 01:18:11;;;;;;;2.33;2.20;;;11.80;97.80;11.10;95939.00;;;;5096126;28;20673;-52
2022/11/01 01:20:38;;;;;;;1.93;1.83;;;11.80;97.80;11.10;95945.00;;;;5096250;28;20202;-52
2022/11/01 01:23:05;;;;;;;1.53;1.43;;;11.80;98.00;11.20;95916.00;;;;5096263;28;20198;-52
2022/11/01 01:25:32;;;;;;;1.57;1.47;;;11.80;98.10;11.20;95927.00;;;;5096061;28;20659;-54
2022/11/01 01:27:58;;;;;;;2.13;1.73;;;11.90;98.20;11.10;95946.00;;;;5096140;28;20194;-52
2022/11/01 01:30:25;;;;;;;1.53;1.43;;;11.80;97.80;11.00;95946.00;;;;5096016;28;20701;-54
2022/11/01 01:32:51;;;;;;;1.20;1.20;;;11.80;97.60;11.00;95939.00;;;;5095913;28;20199;-52
2022/11/01 01:35:18;;;;;;;1.53;1.43;;;11.70;97.60;11.10;95943.00;;;;5095900;28;20217;-52
2022/11/01 01:37:45;;;;;;;1.40;1.30;;;11.70;98.00;11.00;95940.00;;;;5095916;28;20612;-52
2022/11/01 01:40:12;;;;;;;10.07;3.27;;;11.80;97.90;11.10;95934.00;;;;5095914;28;20667;-53
2022/11/01 01:42:41;;;;;;;1.97;1.87;;;11.80;98.20;11.10;95940.00;;;;5095921;28;20195;-52
2022/11/01 01:45:30;;;;;;;1.20;1.13;;;11.80;98.20;11.10;95944.00;;;;5095803;28;20233;-53
2022/11/01 01:48:08;;;;;;;2.00;1.73;;;11.80;98.10;11.20;95943.00;;;;5094501;28;20290;-56
2022/11/01 01:50:41;;;;;;;5.10;1.83;;;11.80;98.30;11.20;95941.00;;;;5095740;28;20702;-53
2022/11/01 01:53:16;;;;;;;1.27;1.27;;;11.90;98.60;11.20;95944.00;;;;5095663;28;20260;-54
2022/11/01 01:55:54;;;;;;;1.27;1.27;;;11.90;98.60;11.30;95951.00;;;;5095740;28;20210;-52
2022/11/01 01:58:27;;;;;;;0.80;0.80;;;12.00;98.70;11.30;95953.00;;;;5095779;28;20311;-52
2022/11/01 02:00:56;;;;;;;1.73;1.63;;;11.90;98.30;11.30;95944.00;;;;5094678;28;20198;-52
2022/11/01 02:03:29;;;;;;;1.00;1.00;;;12.00;98.40;11.30;95943.00;;;;5094575;28;20226;-52
2022/11/01 02:06:05;;;;;;;1.37;1.30;;;12.00;98.50;11.40;95876.00;;;;5095490;28;20301;-51
2022/11/01 02:08:34;;;;;;;1.30;1.30;;;12.00;98.50;11.30;95950.00;;;;5095622;28;20218;-52
2022/11/01 02:11:04;;;;;;;2.13;1.33;;;12.00;98.40;11.30;95956.00;;;;5095657;28;20335;-52
2022/11/01 02:13:31;;;;;;;2.77;1.50;;;12.10;98.30;11.40;95970.00;;;;5077810;28;20222;-52
2022/11/01 02:16:23;;;;;;;1.70;1.60;;;12.10;98.10;11.40;95951.00;;;;5095414;28;20191;-52
2022/11/01 02:19:08;;;;;;;0.97;0.97;;;12.00;97.50;11.30;95946.00;;;;5095368;28;20213;-52
2022/11/01 02:21:52;;;;;;;1.17;1.10;;;12.00;97.60;11.40;95950.00;;;;5095280;28;20218;-52
2022/11/01 02:25:09;;;;;;;1.33;1.30;;;12.10;97.80;11.40;95943.00;;;;5095241;28;20191;-55
2022/11/01 02:28:00;;;;;;;1.43;1.43;;;12.10;98.30;11.50;95930.00;;;;5095264;28;20230;-52
2022/11/01 02:30:40;;;;;;;1.40;1.23;;;12.20;97.90;11.50;95928.00;;;;5095317;28;20233;-52
2022/11/01 02:33:26;;;;;;;8.73;1.80;;;12.20;98.00;11.60;95898.00;;;;5095155;28;20195;-52
2022/11/01 02:36:01;;;;;;;1.03;1.03;;;12.30;98.20;11.60;95896.00;;;;5095120;28;20221;-52
2022/11/01 02:38:33;;;;;;;2.17;2.03;;;12.30;98.10;11.70;95925.00;;;;5095316;28;20241;-53
2022/11/01 02:41:09;;;;;;;1.13;1.13;;;12.30;97.10;11.40;95930.00;;;;5095267;28;20269;-54
2022/11/01 02:43:46;;;;;;;1.67;1.57;;;12.10;97.90;11.30;95935.00;;;;5095106;28;20229;-52
2022/11/01 02:49:05;;;;;;;0.80;0.80;;;11.80;98.50;11.20;95945.00;;;;5094876;28;20237;-52
2022/11/01 02:51:34;;;;;;;1.83;1.67;;;11.90;99.50;11.70;95949.00;;;;5093944;28;20359;-52
2022/11/01 02:54:04;;;;;;;1.60;1.13;;;12.20;99.90;11.90;95942.00;;;;5094657;28;20222;-51
2022/11/01 02:56:30;;;;;;;0.90;0.90;;;12.50;98.50;12.00;95928.00;;;;5094772;28;20541;-52
2022/11/01 02:58:58;;;;;;;2.03;1.57;;;12.70;96.90;12.00;95927.00;;;;5093906;28;20331;-52
2022/11/01 03:01:29;;;;;;;1.80;1.70;;;12.70;97.60;12.00;95923.00;;;;5094658;28;20737;-55
2022/11/01 03:03:57;;;;;;;1.13;1.03;;;12.70;97.20;12.10;95929.00;;;;5094686;28;20299;-55
2022/11/01 03:06:33;;;;;;;1.00;1.00;;;12.70;97.20;12.10;95951.00;;;;5094535;28;20258;-52
2022/11/01 03:09:08;;;;;;;3.40;1.63;;;12.80;96.60;12.20;95927.00;;;;5094610;28;20251;-52
2022/11/01 03:11:49;;;;;;;1.10;1.10;;;12.80;96.30;12.20;95938.00;;;;5094444;28;20218;-52
2022/11/01 03:14:30;;;;;;;1.07;1.07;;;12.90;95.60;12.40;95949.00;;;;5094423;28;20570;-52
2022/11/01 03:17:05;;;;;;;1.67;1.57;;;13.00;95.50;12.40;95953.00;;;;5094395;28;20561;-54
2022/11/01 03:19:45;;;;;;;2.43;1.53;;;13.10;94.80;12.60;95959.00;;;;5094441;28;20259;-53
2022/11/01 03:22:18;;;;;;;1.37;1.33;;;13.20;94.20;12.70;95960.00;;;;5094351;28;20232;-54
2022/11/01 03:24:53;;;;;;;0.90;0.90;;;13.30;93.90;13.00;95965.00;;;;5094273;28;20214;-55
2022/11/01 03:27:32;;;;;;;5.30;1.87;;;13.50;92.70;13.10;95974.00;;;;5094328;28;20225;-58
2022/11/01 03:30:06;;;;;;;1.50;1.43;;;13.60;91.30;13.30;95978.00;;;;5094380;28;20206;-54
2022/11/01 03:32:41;;;;;;;0.97;0.97;;;13.80;90.10;13.70;95985.00;;;;5094261;28;20195;-52
2022/11/01 03:35:17;;;;;;;0.70;0.70;;;14.10;88.70;13.70;95985.00;;;;5093446;28;20229;-52
2022/11/01 03:37:48;;;;;;;1.17;1.17;;;14.20;88.40;13.80;95970.00;;;;5094069;28;20643;-53
2022/11/01 03:40:18;;;;;;;2.67;2.00;;;14.40;85.90;13.80;95976.00;;;;5094096;28;20232;-53
2022/11/01 03:42:51;;;;;;;0.93;0.93;;;14.30;86.70;13.80;95981.00;;;;5094045;28;20186;-52
2022/11/01 03:45:24;;;;;;;0.80;0.80;;;14.40;87.20;14.00;95991.00;;;;5093940;28;20221;-52
2022/11/01 03:47:51;;;;;;;1.10;1.10;;;14.50;85.30;14.00;95987.00;;;;5094135;28;20576;-52
2022/11/01 03:50:20;;;;;;;1.60;1.50;;;14.50;84.90;14.00;95988.00;;;;5093811;28;20367;-52
2022/11/01 03:52:48;;;;;;;0.90;0.90;;;14.60;84.80;13.90;96000.00;;;;5093897;28;20201;-52
2022/11/01 03:55:19;;;;;;;1.37;1.27;;;14.50;84.90;13.80;95994.00;;;;5093877;28;20214;-52
2022/11/01 03:57:49;;;;;;;0.80;0.80;;;14.50;85.00;13.70;95997.00;;;;5093871;28;20218;-52
2022/11/01 04:00:18;;;;;;;1.23;1.23;;;14.40;85.50;13.60;95993.00;;;;5093822;28;20202;-52
2022/11/01 04:02:44;;;;;;;2.40;1.73;;;14.30;86.20;13.70;95997.00;;;;5093735;28;20190;-54
2022/11/01 04:05:11;;;;;;;3.13;1.90;;;14.30;86.20;13.70;96002.00;;;;5093870;28;20288;-52
2022/11/01 04:07:38;;;;;;;1.30;1.30;;;14.40;85.60;13.70;96018.00;;;;5093717;28;20716;-52
2022/11/01 04:10:09;;;;;;;1.63;1.53;;;14.30;85.90;13.70;96001.00;;;;5092506;28;20210;-52
2022/11/01 04:12:36;;;;;;;1.70;1.60;;;14.30;86.10;13.70;96033.00;;;;5093531;28;20237;-52
2022/11/01 04:20:32;;;;;;;0.73;0.73;;;14.50;85.20;14.10;96041.00;;;;5093735;28;20289;-53
2022/11/01 04:22:59;;;;;;;1.40;1.30;;;14.70;84.30;14.20;96023.00;;;;5093512;28;20214;-52
2022/11/01 04:25:26;;;;;;;0.80;0.80;;;14.70;84.30;14.30;96025.00;;;;5093556;28;20293;-52
2022/11/01 04:27:55;;;;;;;0.53;0.53;;;14.80;83.60;14.40;96030.00;;;;5093506;28;20194;-52
2022/11/01 04:30:22;;;;;;;1.00;1.00;;;15.10;81.70;14.70;96048.00;;;;5093416;28;20199;-53
2022/11/01 04:32:48;;;;;;;0.50;0.50;;;15.10;82.00;14.50;96053.00;;;;5093385;28;20221;-52
2022/11/01 04:35:18;;;;;;;0.60;0.60;;;15.10;83.00;14.40;96062.00;;;;5093242;28;20222;-52
2022/11/01 04:37:45;;;;;;;0.93;0.93;;;15.10;83.40;14.50;96066.00;;;;5093260;28;20205;-54
2022/11/01 04:40:13;;;;;;;0.60;0.60;;;15.00;83.80;14.40;96068.00;;;;5093156;28;20218;-52
2022/11/01 04:42:40;;;;;;;0.60;0.60;;;15.00;83.70;14.50;96069.00;;;;5093215;28;20254;-52
2022/11/01 04:45:08;;;;;;;0.77;0.77;;;15.10;84.30;14.40;96071.00;;;;5093060;28;20222;-52
2022/11/01 04:47:35;;;;;;;2.00;1.73;;;15.00;84.70;14.30;96060.00;;;;5093283;28;20195;-54
2022/11/01 04:50:01;;;;;;;0.60;0.60;;;14.90;85.60;14.30;96064.00;;;;5093139;28;20195;-54
2022/11/01 04:52:27;;;;;;;0.90;0.90;;;14.90;85.70;14.40;96079.00;;;;5092980;28;20658;-52
2022/11/01 04:54:54;;;;;;;0.93;0.80;;;15.00;85.20;14.30;96078.00;;;;5093152;28;20217;-52
2022/11/01 04:57:23;;;;;;;0.60;0.60;;;14.90;85.80;14.40;96091.00;;;;5092973;28;20230;-53
2022/11/01 04:59:50;;;;;;;1.80;1.70;;;14.90;86.20;14.30;96101.00;;;;5092192;28;20210;-52
2022/11/01 05:02:17;;;;;;;0.90;0.90;;;14.90;86.20;14.10;96111.00;;;;5092889;28;20233;-52
2022/11/01 05:04:44;;;;;;;0.60;0.60;;;;;14.20;96112.00;;;;5075250;28;20271;-52
2022/11/01 05:07:11;;;;;;;0.70;0.70;;;;;14.40;96145.00;;;;5092905;28;20199;-52
2022/11/01 05:09:37;;;;;;;0.50;0.50;;;;;14.50;96137.00;;;;5092988;28;20635;-54
2022/11/01 05:12:04;;;;;;;19.83;1.03;;;;;14.50;96140.00;;;;5093061;28;20183;-52
2022/11/01 05:14:31;;;;;;;0.50;0.50;;;15.10;87.30;14.50;96139.00;;;;5075137;28;20226;-52
2022/11/01 05:16:59;;;;;;;0.40;0.40;;;;;14.30;96124.00;;;;5092819;28;20191;-52
2022/11/01 05:19:27;;;;;;;0.60;0.60;;;14.80;88.60;14.20;96088.00;;;;5092707;28;20635;-52
2022/11/01 05:21:54;;;;;;;0.97;0.97;;;14.90;88.10;14.30;96076.00;;;;5094427;28;20289;-53
2022/11/01 05:24:23;;;;;;;0.73;0.73;;;14.80;88.60;14.20;96083.00;;;;5096124;28;20229;-53
2022/11/01 05:26:50;;;;;;;0.70;0.70;;;14.80;88.30;14.20;96106.00;;;;5096256;28;20215;-53
2022/11/01 05:29:16;;;;;;;3.10;0.93;;;14.70;88.40;14.10;96093.00;;;;5096113;28;20245;-52
2022/11/01 05:31:43;;;;;;;1.57;1.47;;;;;14.10;96099.00;;;;5096100;28;20691;-52
2022/11/01 05:34:10;;;;;;;0.67;0.67;;;14.80;88.20;14.30;96104.00;;;;5096128;28;20203;-52
2022/11/01 05:36:36;;;;;;;0.70;0.70;;;14.80;88.20;14.30;96107.00;;;;5095986;28;20272;-52
2022/11/01 05:39:03;;;;;;;0.60;0.60;;;14.80;88.10;14.20;96113.00;;;;5096047;28;20258;-52
2022/11/01 05:41:29;;;;;;;0.50;0.50;;;14.70;88.40;14.10;96111.00;;;;5095854;28;20288;-51
2022/11/01 05:43:56;;;;;;;0.50;0.50;;;14.80;88.40;14.20;96114.00;;;;5096005;28;20217;-52
2022/11/01 05:46:22;;;;;;;0.90;0.90;;;14.80;88.10;14.10;96103.00;;;;5095859;28;20226;-52
2022/11/01 05:48:49;;;;;;;0.60;0.60;;;14.60;89.00;14.00;96131.00;;;;5095877;28;20342;-51
2022/11/01 05:51:18;;;;;;;0.60;0.60;;;14.60;89.60;14.00;96110.00;;;;5095957;28;20195;-52
2022/11/01 05:53:47;;;;;;;0.80;0.80;;;14.60;90.40;13.90;96134.00;;;;5095729;28;20249;-53
2022/11/01 05:56:13;;;;;;;0.70;0.70;;;14.60;90.70;13.90;96142.00;;;;5095753;28;20290;-52
2022/11/01 05:58:40;;;;;;;0.50;0.50;;;14.50;90.80;14.00;96147.00;;;;5095744;28;20244;-52
2022/11/01 06:01:08;;;;;;;0.60;0.60;;;14.50;91.00;14.00;96145.00;;;;5094791;28;20259;-57
2022/11/01 06:03:35;;;;;;;0.60;0.60;;;14.60;90.40;13.90;96138.00;;;;5095549;28;20218;-52
2022/11/01 06:06:03;;;;;;;0.50;0.50;;;14.50;91.70;13.80;96144.00;;;;5095612;28;20362;-54
2022/11/01 06:08:31;;;;;;;0.50;0.50;;;14.50;92.60;14.00;96137.00;;;;5095621;28;20684;-54
2022/11/01 06:11:02;;;;;;;0.50;0.50;;;14.60;92.50;14.00;96138.00;;;;5095459;28;20218;-53
2022/11/01 06:13:28;;;;;;;0.50;0.50;;;14.60;91.80;14.00;96136.00;;;;5095670;28;20512;-56
2022/11/01 06:15:58;;;;;;;0.77;0.77;;;14.50;92.30;14.20;96136.00;;;;5095607;28;20218;-55
2022/11/01 06:18:24;;;;;;;0.50;0.50;;;14.70;91.40;14.10;96141.00;;;;5094675;28;20366;-52
2022/11/01 06:20:51;;;;;;;0.67;0.67;;;14.70;91.50;14.10;96144.00;;;;5095539;28;20604;-53
2022/11/01 06:23:18;;;;;;;0.77;0.77;;;14.70;91.70;14.20;96150.00;;;;5095250;28;20638;-54
2022/11/01 06:25:47;;;;;;;0.80;0.80;;;14.70;91.70;14.10;96153.00;;;;5095125;28;20298;-52
2022/11/01 06:28:14;;;;;;;0.60;0.60;;;14.70;91.50;14.10;96163.00;;;;5095170;28;20197;-54
2022/11/01 06:30:42;;;;;;;0.50;0.50;;;14.60;91.60;14.10;96164.00;;;;5095277;28;20506;-54
2022/11/01 06:33:09;;;;;;;1.50;0.80;;;14.70;91.40;14.00;96167.00;;;;5094170;28;20726;-52
2022/11/01 06:35:37;;;;;;;0.40;0.40;;;14.60;91.20;14.10;96171.00;;;;5077424;28;20194;-53
2022/11/01 06:38:05;;;;;;;0.50;0.50;;;14.70;91.40;13.90;96180.00;;;;5095032;28;20214;-53
2022/11/01 06:40:32;;;;;;;0.60;0.60;;;14.50;91.80;13.90;96181.00;;;;5095071;28;20202;-53
2022/11/01 06:43:04;;;;;;;0.50;0.50;;;14.50;92.30;14.10;96164.00;;;;5094983;28;20557;-52
2022/11/01 06:45:32;;;;;;;0.50;0.50;;;14.60;91.60;14.10;96178.00;;;;5094912;28;20222;-53
2022/11/01 06:47:58;;;;;;;0.70;0.70;;;14.60;91.10;14.00;96187.00;;;;5094881;28;20197;-53
2022/11/01 06:50:25;;;;;;;0.50;0.50;;;14.60;91.50;14.00;96187.00;;;;5093897;28;20210;-53
2022/11/01 06:52:56;;;;;;;0.60;0.60;;;14.60;90.90;14.00;96193.00;;;;5094767;28;20199;-52
2022/11/01 06:55:23;;;;;;;0.40;0.40;;;14.60;91.60;14.00;96194.00;;;;5094744;28;20233;-53
2022/11/01 06:57:56;;;;;;;0.50;0.50;;;;;14.00;96196.00;;;;5094823;28;20278;-52
2022/11/01 07:00:27;;;;;;;1.23;1.13;;;14.50;91.30;14.00;96187.00;;;;5094739;28;20229;-54
2022/11/01 07:02:59;;;;;;;0.60;0.60;;;14.60;91.80;13.90;96187.00;;;;5077420;28;20534;-52
2022/11/01 07:05:29;;;;;;;0.60;0.60;;;14.50;91.60;14.00;96201.00;;;;5094576;28;20230;-52
2022/11/01 07:07:55;;;;;;;0.50;0.50;;;14.50;92.10;14.00;96208.00;;;;5094554;28;20199;-53
2022/11/01 07:10:22;;;;;;;6.53;1.60;;;14.60;92.20;14.00;96207.00;;;;5093626;28;20238;-51
2022/11/01 07:12:49;;;;;;;0.50;0.50;;;14.50;91.70;13.80;96198.00;;;;5094612;28;20210;-52
2022/11/01 07:15:15;;;;;;;0.50;0.50;;;14.50;92.60;14.00;96204.00;;;;5094570;28;20273;-53
2022/11/01 07:17:44;;;;;;;0.50;0.50;;;14.50;92.50;14.00;96205.00;;;;5094414;28;20225;-53
2022/11/01 07:20:11;;;;;;;0.53;0.53;;;14.60;92.10;14.00;96202.00;;;;5094480;28;20199;-52
2022/11/01 07:22:37;;;;;;;0.60;0.60;;;14.50;92.50;13.90;96194.00;;;;5094357;28;20245;-51
2022/11/01 07:25:06;;;;;;;0.47;0.47;;;14.50;92.70;13.90;96197.00;;;;5093321;28;20246;-53
2022/11/01 07:27:35;;;;;;;0.50;0.50;;;14.50;93.70;14.00;96206.00;;;;5094235;28;20738;-51
2022/11/01 07:30:03;;;;;;;0.53;0.53;;;14.50;92.90;14.10;96207.00;;;;5076451;28;20619;-51
2022/11/01 07:32:29;;;;;;;0.70;0.70;;;14.70;92.90;14.10;96209.00;;;;5094326;28;20721;-57
2022/11/01 07:34:56;;;;;;;0.50;0.50;;;14.60;91.60;14.10;96212.00;;;;5094366;28;20215;-53
2022/11/01 07:37:27;;;;;;;0.53;0.53;;;14.70;90.90;14.30;96222.00;;;;5094161;28;20312;-52
2022/11/01 07:39:56;;;;;;;0.50;0.50;;;14.70;90.50;14.00;96218.00;;;;5094154;28;20190;-52
2022/11/01 07:42:22;;;;;;;0.60;0.60;;;14.60;90.80;14.10;96220.00;;;;5094147;28;20289;-52
2022/11/01 07:44:49;;;;;;;0.57;0.57;;;;;14.20;96222.00;;;;5093870;28;20705;-54
2022/11/01 07:47:18;;;;;;;0.60;0.60;;;14.70;90.40;14.20;96228.00;;;;5094255;28;20199;-52
2022/11/01 07:49:44;;;;;;;0.50;0.50;;;14.70;91.00;14.30;96218.00;;;;5094046;28;20273;-54
2022/11/01 07:52:11;;;;;;;0.70;0.70;;;14.80;89.60;14.30;96232.00;;;;5094097;28;20199;-54
2022/11/01 07:54:40;;;;;;;0.70;0.70;;;14.90;89.10;14.40;96234.00;;;;5094098;28;20639;-53
2022/11/01 07:57:08;;;;;;;0.70;0.70;;;15.00;89.60;14.50;96218.00;;;;5094022;28;20273;-52
2022/11/01 07:59:35;;;;;;;0.50;0.50;;;;;14.50;96247.00;;;;5093839;28;20199;-53
2022/11/01 08:02:02;;;;;;;0.67;0.67;;;15.10;87.50;14.60;96239.00;;;;5093764;28;20230;-52
2022/11/01 08:04:31;;;;;;;0.80;0.80;;;15.10;87.50;14.60;96249.00;;;;5093689;28;20207;-52
2022/11/01 08:06:57;;;;;;;0.67;0.67;;;15.10;87.00;14.60;96245.00;;;;5092697;28;20596;-52
2022/11/01 08:09:24;;;;;;;0.50;0.50;;;15.20;87.10;14.70;96251.00;;;;5093688;28;20259;-52
2022/11/01 08:11:51;;;;;;;0.60;0.60;;;15.20;86.60;14.70;96261.00;;;;5093662;28;20322;-52
2022/11/01 08:14:17;;;;;;;0.60;0.60;;;15.30;86.20;14.80;96258.00;;;;5093579;28;20715;-52
2022/11/01 08:16:47;;;;;;;0.50;0.50;;;15.20;86.90;14.50;96268.00;;;;5093626;28;20270;-52
2022/11/01 08:19:14;;;;;;;0.60;0.60;;;15.20;87.20;14.60;96269.00;;;;5093549;28;20218;-52
2022/11/01 08:21:40;;;;;;;0.50;0.50;;;15.20;87.70;14.80;96276.00;;;;5093548;28;20224;-52
2022/11/01 08:24:10;;;;;;;0.50;0.50;;;;;14.70;96276.00;;;;5075550;28;20709;-52
2022/11/01 08:26:37;;;;;;;0.50;0.50;;;15.30;86.10;14.80;96272.00;;;;5093370;28;20222;-52
2022/11/01 08:29:03;;;;;;;0.50;0.50;;;15.50;85.20;15.00;96282.00;;;;5093344;28;20324;-52
2022/11/01 08:31:30;;;;;;;0.50;0.50;;;15.60;86.50;15.00;96284.00;;;;5092448;28;20202;-54
2022/11/01 08:33:56;;;;;;;0.40;0.40;;;15.50;84.10;14.80;96281.00;;;;5093274;28;20670;-54
2022/11/01 08:36:23;;;;;;;0.40;0.40;;;15.40;84.10;14.90;96280.00;;;;5093343;28;20619;-52
2022/11/01 08:38:49;;;;;;;0.60;0.60;;;15.50;84.40;15.00;96279.00;;;;5093303;28;20591;-52
2022/11/01 08:41:16;;;;;;;0.40;0.40;;;15.50;85.40;15.10;96273.00;;;;5093329;28;20233;-52
2022/11/01 08:43:44;;;;;;;0.50;0.50;;;15.60;85.20;15.10;96273.00;;;;5093303;28;20250;-54
2022/11/01 08:46:10;;;;;;;0.60;0.60;;;15.60;86.10;15.10;96284.00;;;;5093196;28;20287;-53
2022/11/01 08:48:39;;;;;;;0.60;0.60;;;15.70;85.70;15.10;96278.00;;;;5093065;28;20222;-53
2022/11/01 08:51:05;;;;;;;0.50;0.50;;;15.70;86.00;15.10;96282.00;;;;5092486;28;20266;-53
2022/11/01 08:53:34;;;;;;;0.50;0.50;;;15.60;85.50;15.10;96294.00;;;;5093007;28;20296;-53
2022/11/01 08:56:00;;;;;;;0.67;0.67;;;15.70;86.10;15.20;96287.00;;;;5093480;28;20211;-52
2022/11/01 08:58:27;;;;;;;0.53;0.53;;;15.70;84.90;15.40;96275.00;;;;5078759;28;20264;-52
2022/11/01 09:00:54;;;;;;;0.50;0.50;;;;;15.30;96288.00;;;;5096632;28;20211;-53
2022/11/01 09:03:21;;;;;;;0.50;0.50;;;16.00;83.70;15.70;96284.00;;;;5096541;28;20205;-52
2022/11/01 09:05:47;;;;;;;0.50;0.50;;;16.10;83.70;15.90;96292.00;;;;5096439;28;20279;-52
2022/11/01 09:08:14;;;;;;;0.50;0.50;;;16.30;81.30;16.00;96280.00;;;;5096469;28;20201;-52
2022/11/01 09:10:41;;;;;;;1.47;1.00;;;16.20;80.30;15.70;96282.00;;;;5096606;28;20194;-55
2022/11/01 09:13:07;;;;;;;0.50;0.50;;;16.30;81.60;15.80;96287.00;;;;5096637;28;20293;-52
2022/11/01 09:15:34;;;;;;;0.60;0.60;;;;;15.40;96285.00;;;;5096316;28;20221;-53
2022/11/01 09:18:06;;;;;;;0.50;0.50;;;15.80;81.20;15.20;96288.00;;;;5096312;28;20191;-56
2022/11/01 09:20:33;;;;;;;0.50;0.50;;;15.80;81.50;15.30;96292.00;;;;5078484;28;20411;-53
2022/11/01 09:22:59;;;;;;;0.60;0.60;;;15.80;82.00;15.30;96292.00;;;;5096144;28;20255;-57
2022/11/01 09:25:26;;;;;;;0.80;0.80;;;15.80;81.40;15.40;96282.00;;;;5096086;28;20215;-51
2022/11/01 09:27:56;;;;;;;0.70;0.70;;;16.30;81.60;15.90;96282.00;;;;5096023;28;20205;-53
2022/11/01 09:30:23;;;;;;;0.50;0.50;;;16.20;80.10;15.80;96282.00;;;;5096289;28;20223;-54
2022/11/01 09:32:52;;;;;;;0.60;0.60;;;16.40;79.10;15.90;96294.00;;;;5096143;28;20199;-53
2022/11/01 09:35:19;;;;;;;0.43;0.43;;;16.50;78.90;16.00;96297.00;;;;5096228;28;20214;-52
2022/11/01 09:37:45;;;;;;;0.50;0.50;;;16.50;79.70;16.10;96303.00;;;;5095787;28;20210;-52
2022/11/01 09:40:14;;;;;;;0.50;0.50;;;16.30;78.00;15.70;96293.00;;;;5095864;28;20309;-52
2022/11/01 09:42:45;;;;;;;0.50;0.50;;;16.40;93.80;15.90;96301.00;;;;5096056;28;20804;-52
2022/11/01 09:45:19;;;;;;;2.43;0.97;;;16.40;95.50;16.20;96301.00;;;;5095860;28;20291;-54
2022/11/01 09:47:51;;;;;;;0.60;0.60;;;16.50;77.70;16.00;96306.00;;;;5094841;28;20252;-53
2022/11/01 09:50:26;;;;;;;0.50;0.50;;;16.40;77.30;16.20;96300.00;;;;5095706;28;20230;-52
2022/11/01 09:52:56;;;;;;;0.50;0.50;;;16.50;76.50;16.20;96300.00;;;;5095864;28;20248;-53
2022/11/01 09:55:40;;;;;;;0.50;0.50;;;16.40;76.50;15.80;96313.00;;;;5095710;28;20301;-53
2022/11/01 09:58:29;;;;;;;0.80;0.80;;;;;16.10;96303.00;;;;5077868;28;20222;-53
2022/11/01 10:01:14;;;;;;;0.60;0.60;;;16.20;77.50;15.80;96312.00;;;;5095619;28;20222;-52
2022/11/01 10:04:00;;;;;;;0.50;0.50;;;16.30;78.50;15.80;96306.00;;;;5095676;28;20205;-53
2022/11/01 10:06:34;;;;;;;0.60;0.60;;;16.30;75.90;15.80;96306.00;;;;5094638;28;20257;-53
2022/11/01 10:09:15;;;;;;;0.50;0.50;;;16.30;83.40;16.00;96301.00;;;;5077602;28;20232;-58
2022/11/01 10:12:00;;;;;;;0.60;0.60;;;16.40;75.10;15.90;96306.00;;;;5095454;28;20257;-54
2022/11/01 10:14:48;;;;;;;0.87;0.87;;;16.40;74.60;15.90;96315.00;;;;5095556;28;20260;-52
2022/11/01 10:17:19;;;;;;;0.50;0.50;;;16.40;75.00;16.30;96295.00;;;;5095379;28;20226;-53
2022/11/01 10:19:49;;;;;;;0.50;0.50;;;16.70;75.90;16.40;96308.00;;;;5095435;28;20183;-53
2022/11/01 10:22:19;;;;;;;0.60;0.60;;;16.80;73.20;16.30;96312.00;;;;5095366;28;20278;-52
2022/11/01 10:24:55;;;;;;;0.50;0.50;;;16.80;72.70;16.30;96312.00;;;;5095467;28;20201;-52
2022/11/01 10:27:30;;;;;;;0.50;0.50;;;16.90;73.00;16.40;96304.00;;;;5095246;28;20261;-52
2022/11/01 10:30:06;;;;;;;0.97;0.97;;;16.70;73.10;16.10;96286.00;;;;5094309;28;20198;-52
2022/11/01 10:32:44;;;;;;;0.50;0.50;;;16.70;73.60;16.20;96318.00;;;;5095141;28;20226;-53
2022/11/01 10:35:18;;;;;;;0.60;0.60;;;16.70;71.30;16.30;96314.00;;;;5095169;28;20222;-53
2022/11/01 10:37:54;;;;;;;0.60;0.60;;;16.80;71.50;16.10;96320.00;;;;5094983;28;20372;-54
2022/11/01 10:40:28;;;;;;;0.50;0.50;;;16.60;72.60;16.30;96308.00;;;;5095102;28;20194;-53
2022/11/01 10:42:55;;;;;;;0.60;0.60;;;17.00;71.60;16.70;96307.00;;;;5095022;28;20232;-54
2022/11/01 10:45:22;;;;;;;0.50;0.50;;;17.00;71.10;17.00;96308.00;;;;5094872;28;20293;-52
2022/11/01 10:47:56;;;;;;;1.17;0.67;;;17.20;68.30;17.00;96304.00;;;;5094968;28;20317;-52
2022/11/01 10:50:25;;;;;;;0.50;0.50;;;17.20;69.20;16.60;96304.00;;;;5095022;28;20254;-52
2022/11/01 10:52:59;;;;;;;0.60;0.60;;;17.20;69.60;16.90;96300.00;;;;5077059;28;20205;-54
2022/11/01 10:55:37;;;;;;;0.50;0.50;;;17.60;65.90;17.10;96313.00;;;;5094869;28;20292;-54
2022/11/01 10:58:15;;;;;;;1.33;0.80;;;17.70;64.60;17.30;96307.00;;;;5094926;28;20631;-55
2022/11/01 11:00:45;;;;;;;0.40;0.40;;;17.90;64.80;17.60;96308.00;;;;5094074;28;20714;-58
2022/11/01 11:03:21;;;;;;;0.70;0.70;;;17.90;64.30;17.40;96315.00;;;;5095019;28;20622;-56
2022/11/01 11:05:51;;;;;;;0.50;0.50;;;17.90;63.00;17.70;96319.00;;;;5077075;28;20309;-55
2022/11/01 11:08:23;;;;;;;0.67;0.67;;;17.60;60.20;17.00;96313.00;;;;5094758;28;20657;-55
2022/11/01 11:10:50;;;;;;;0.40;0.40;;;17.60;59.10;17.00;96315.00;;;;5094572;28;20214;-52
2022/11/01 11:13:21;;;;;;;0.60;0.60;;;17.70;57.90;17.30;96331.00;;;;5094464;28;20284;-55
2022/11/01 11:15:53;;;;;;;0.47;0.47;;;17.40;57.20;16.80;96313.00;;;;5076450;28;20518;-53
2022/11/01 11:18:26;;;;;;;0.47;0.47;;;17.30;56.90;16.80;96318.00;;;;5094330;28;20175;-52